Climatologie pour Saint-Brevin les Pins
Jour • Résumé pour mars 28, 2017 Système :  Métrique    Anglais   Mixte
« - 1 jour
+ 1 jour »
Jour Semaine Mois Année Personnalisé
  Maximum : Minimum : Moyenne :
Température sous abri : 16.1 °C 8.9 °C 12.3 °C
Point de rosée : 12.1 °C 7.7 °C 9.9 °C
Humidité : 97 % 72 % 86 %
Vitesse du vent : 22.5 km/h 0.0 km/h 6.6 km/h
Rafale : 29.0 km/h - -
Direction :- - SSW
Pression : 1026.3 hPa 1018.8 hPa -
Précipitations : 0.0 mm    
Historical Graphs
 
 
Tableau de données pour mars 28, 2017
Heure Tempé Pt rosée Pression Vent Vitesse Rafale Humidité Taux pluie (/hr) Soleil
00:00 11.3 °C 9.0 °C 1018.8 hPa SSE 6.4 km/h 12.9 km/h 86 % 0.0 mm 0 W/m2
00:05 11.1 °C 9.0 °C 1018.8 hPa SSE 6.4 km/h 9.7 km/h 87 % 0.0 mm 0 W/m2
00:10 10.7 °C 8.6 °C 1018.8 hPa Calm   9.7 km/h 87 % 0.0 mm 0 W/m2
00:15 10.4 °C 8.5 °C 1019.2 hPa Calm   9.7 km/h 88 % 0.0 mm 0 W/m2
00:20 10.1 °C 8.4 °C 1019.2 hPa SE 3.2 km/h 6.4 km/h 89 % 0.0 mm 0 W/m2
00:25 9.8 °C 8.1 °C 1019.2 hPa SE 3.2 km/h 4.8 km/h 89 % 0.0 mm 0 W/m2
00:30 9.8 °C 8.4 °C 1019.2 hPa South 6.4 km/h 9.7 km/h 91 % 0.0 mm 0 W/m2
00:35 10.2 °C 8.8 °C 1019.2 hPa SSE 6.4 km/h 9.7 km/h 91 % 0.0 mm 0 W/m2
00:40 10.3 °C 8.9 °C 1018.8 hPa South 3.2 km/h 9.7 km/h 91 % 0.0 mm 0 W/m2
00:45 10.2 °C 8.8 °C 1018.8 hPa South 3.2 km/h 9.7 km/h 91 % 0.0 mm 0 W/m2
00:50 9.9 °C 8.5 °C 1019.2 hPa Calm   6.4 km/h 91 % 0.0 mm 0 W/m2
00:55 9.6 °C 8.2 °C 1019.2 hPa Calm   3.2 km/h 91 % 0.0 mm 0 W/m2
01:00 9.3 °C 7.9 °C 1019.2 hPa South 1.6 km/h 3.2 km/h 91 % 0.0 mm 0 W/m2
01:05 9.3 °C 8.0 °C 1019.2 hPa South 3.2 km/h 4.8 km/h 92 % 0.0 mm 0 W/m2
01:10 9.2 °C 7.9 °C 1019.2 hPa South 1.6 km/h 6.4 km/h 92 % 0.0 mm 0 W/m2
01:15 8.9 °C 7.7 °C 1019.2 hPa South 3.2 km/h 6.4 km/h 92 % 0.0 mm 0 W/m2
01:20 9.0 °C 7.9 °C 1019.2 hPa South 3.2 km/h 6.4 km/h 93 % 0.0 mm 0 W/m2
01:25 8.9 °C 7.9 °C 1019.2 hPa South 3.2 km/h 6.4 km/h 93 % 0.0 mm 0 W/m2
01:30 8.9 °C 7.8 °C 1019.2 hPa Calm   6.4 km/h 93 % 0.0 mm 0 W/m2
01:40 9.2 °C 8.3 °C 1019.2 hPa South 3.2 km/h 6.4 km/h 94 % 0.0 mm 0 W/m2
01:45 9.1 °C 8.1 °C 1019.5 hPa South 3.2 km/h 6.4 km/h 94 % 0.0 mm 0 W/m2
01:50 9.1 °C 8.1 °C 1019.5 hPa SSE 3.2 km/h 6.4 km/h 94 % 0.0 mm 0 W/m2
01:55 9.2 °C 8.3 °C 1019.5 hPa SSE 1.6 km/h 8.0 km/h 94 % 0.0 mm 0 W/m2
02:00 9.1 °C 8.2 °C 1019.5 hPa Calm   8.0 km/h 94 % 0.0 mm 0 W/m2
02:05 9.1 °C 8.1 °C 1019.9 hPa SSE 3.2 km/h 8.0 km/h 94 % 0.0 mm 0 W/m2
02:10 9.0 °C 8.1 °C 1019.9 hPa SSE 4.8 km/h 8.0 km/h 94 % 0.0 mm 0 W/m2
02:15 9.1 °C 8.3 °C 1019.9 hPa South 3.2 km/h 8.0 km/h 95 % 0.0 mm 0 W/m2
02:20 9.3 °C 8.5 °C 1019.9 hPa SSW 9.7 km/h 9.7 km/h 95 % 0.0 mm 0 W/m2
02:25 9.9 °C 9.3 °C 1019.9 hPa SSW 3.2 km/h 12.9 km/h 96 % 0.0 mm 0 W/m2
02:30 10.2 °C 9.5 °C 1019.9 hPa SSW 9.7 km/h 12.9 km/h 95 % 0.0 mm 0 W/m2
02:35 10.3 °C 9.6 °C 1019.9 hPa South 8.0 km/h 12.9 km/h 95 % 0.0 mm 0 W/m2
02:40 10.4 °C 9.6 °C 1019.9 hPa SSW 3.2 km/h 14.5 km/h 95 % 0.0 mm 0 W/m2
02:45 10.4 °C 9.6 °C 1019.9 hPa South 8.0 km/h 14.5 km/h 95 % 0.0 mm 0 W/m2
02:50 10.4 °C 9.7 °C 1019.9 hPa South 6.4 km/h 11.3 km/h 95 % 0.0 mm 0 W/m2
02:55 10.4 °C 9.7 °C 1019.9 hPa South 8.0 km/h 11.3 km/h 95 % 0.0 mm 0 W/m2
03:00 10.4 °C 9.7 °C 1019.9 hPa SSW 4.8 km/h 11.3 km/h 95 % 0.0 mm 0 W/m2
03:05 10.3 °C 9.6 °C 1019.9 hPa South 4.8 km/h 11.3 km/h 95 % 0.0 mm 0 W/m2
03:10 10.2 °C 9.5 °C 1019.9 hPa South 4.8 km/h 11.3 km/h 95 % 0.0 mm 0 W/m2
03:15 10.1 °C 9.3 °C 1019.9 hPa SW 3.2 km/h 11.3 km/h 95 % 0.0 mm 0 W/m2
03:20 10.1 °C 9.3 °C 1019.9 hPa SSW 8.0 km/h 11.3 km/h 95 % 0.0 mm 0 W/m2
03:25 10.0 °C 9.2 °C 1019.9 hPa South 8.0 km/h 9.7 km/h 95 % 0.0 mm 0 W/m2
03:30 9.9 °C 9.1 °C 1020.2 hPa South 3.2 km/h 9.7 km/h 95 % 0.0 mm 0 W/m2
03:35 9.7 °C 9.0 °C 1020.2 hPa South 6.4 km/h 8.0 km/h 95 % 0.0 mm 0 W/m2
03:40 9.6 °C 8.8 °C 1019.9 hPa South 6.4 km/h 8.0 km/h 95 % 0.0 mm 0 W/m2
03:45 9.5 °C 8.9 °C 1019.9 hPa South 4.8 km/h 8.0 km/h 96 % 0.0 mm 0 W/m2
03:50 9.4 °C 8.6 °C 1019.9 hPa South 3.2 km/h 8.0 km/h 95 % 0.0 mm 0 W/m2
03:55 9.4 °C 8.8 °C 1020.2 hPa South 4.8 km/h 8.0 km/h 96 % 0.0 mm 0 W/m2
04:00 9.3 °C 8.7 °C 1020.2 hPa South 4.8 km/h 8.0 km/h 96 % 0.0 mm 0 W/m2
04:05 9.3 °C 8.7 °C 1020.2 hPa South 3.2 km/h 8.0 km/h 96 % 0.0 mm 0 W/m2
04:10 9.2 °C 8.6 °C 1020.2 hPa South 4.8 km/h 8.0 km/h 96 % 0.0 mm 0 W/m2
04:15 9.2 °C 8.6 °C 1020.2 hPa SSW 3.2 km/h 8.0 km/h 96 % 0.0 mm 0 W/m2
04:20 9.4 °C 8.8 °C 1020.2 hPa South 9.7 km/h 11.3 km/h 96 % 0.0 mm 0 W/m2
04:25 9.4 °C 8.8 °C 1020.5 hPa SSW 3.2 km/h 11.3 km/h 96 % 0.0 mm 0 W/m2
04:30 9.4 °C 8.8 °C 1020.5 hPa SSW 3.2 km/h 9.7 km/h 96 % 0.0 mm 0 W/m2
04:35 9.5 °C 8.9 °C 1020.5 hPa SSW 6.4 km/h 9.7 km/h 96 % 0.0 mm 0 W/m2
04:40 9.5 °C 8.9 °C 1020.2 hPa SSW 6.4 km/h 9.7 km/h 96 % 0.0 mm 0 W/m2
04:45 9.6 °C 9.0 °C 1020.5 hPa South 6.4 km/h 9.7 km/h 96 % 0.0 mm 0 W/m2
04:55 9.7 °C 9.1 °C 1020.5 hPa SSW 4.8 km/h 6.4 km/h 96 % 0.0 mm 0 W/m2
05:00 9.6 °C 9.0 °C 1020.5 hPa SSW 3.2 km/h 6.4 km/h 96 % 0.0 mm 0 W/m2
05:05 9.7 °C 9.1 °C 1020.5 hPa SW 3.2 km/h 6.4 km/h 96 % 0.0 mm 0 W/m2
05:10 9.8 °C 9.3 °C 1020.5 hPa SW 4.8 km/h 6.4 km/h 97 % 0.0 mm 0 W/m2
05:15 9.9 °C 9.3 °C 1020.5 hPa WSW 3.2 km/h 9.7 km/h 96 % 0.0 mm 0 W/m2
05:20 9.9 °C 9.3 °C 1020.5 hPa WSW 6.4 km/h 9.7 km/h 96 % 0.0 mm 0 W/m2
05:25 10.1 °C 9.7 °C 1020.5 hPa Calm   9.7 km/h 97 % 0.0 mm 0 W/m2
05:30 10.1 °C 9.4 °C 1020.5 hPa WSW 1.6 km/h 9.7 km/h 96 % 0.0 mm 0 W/m2
05:35 10.1 °C 9.5 °C 1020.5 hPa WSW 4.8 km/h 8.0 km/h 96 % 0.0 mm 0 W/m2
05:40 10.1 °C 9.5 °C 1020.5 hPa SW 1.6 km/h 8.0 km/h 96 % 0.0 mm 0 W/m2
05:45 10.1 °C 9.5 °C 1020.5 hPa SW 1.6 km/h 8.0 km/h 96 % 0.0 mm 0 W/m2
05:50 10.2 °C 9.6 °C 1020.5 hPa Calm   8.0 km/h 96 % 0.0 mm 0 W/m2
05:55 10.2 °C 9.6 °C 1020.5 hPa SW 4.8 km/h 6.4 km/h 96 % 0.0 mm 0 W/m2
06:00 10.1 °C 9.5 °C 1020.5 hPa WSW 6.4 km/h 8.0 km/h 96 % 0.0 mm 0 W/m2
06:05 10.1 °C 9.4 °C 1020.9 hPa WSW 6.4 km/h 9.7 km/h 96 % 0.0 mm 0 W/m2
06:10 10.1 °C 9.5 °C 1020.9 hPa SW 4.8 km/h 11.3 km/h 96 % 0.0 mm 0 W/m2
06:15 10.1 °C 9.5 °C 1020.9 hPa Calm   11.3 km/h 96 % 0.0 mm 0 W/m2
06:20 10.2 °C 9.6 °C 1020.9 hPa WSW 4.8 km/h 8.0 km/h 96 % 0.0 mm 0 W/m2
06:25 10.2 °C 9.6 °C 1020.9 hPa Calm   6.4 km/h 96 % 0.0 mm 0 W/m2
06:30 10.1 °C 9.3 °C 1020.9 hPa Calm   6.4 km/h 95 % 0.0 mm 0 W/m2
06:35 9.9 °C 9.1 °C 1020.9 hPa Calm   4.8 km/h 95 % 0.0 mm 0 W/m2
06:40 9.8 °C 9.1 °C 1020.9 hPa SSW 3.2 km/h 6.4 km/h 95 % 0.0 mm 0 W/m2
06:45 9.6 °C 8.8 °C 1020.9 hPa Calm   6.4 km/h 95 % 0.0 mm 0 W/m2
06:50 9.8 °C 9.2 °C 1021.2 hPa Calm   6.4 km/h 96 % 0.0 mm 0 W/m2
06:55 9.8 °C 9.0 °C 1021.2 hPa SSW 3.2 km/h 4.8 km/h 95 % 0.0 mm 0 W/m2
07:00 9.8 °C 9.0 °C 1021.2 hPa SSW 1.6 km/h 9.7 km/h 95 % 0.0 mm 0 W/m2
07:05 9.8 °C 9.2 °C 1021.2 hPa SSW 3.2 km/h 9.7 km/h 96 % 0.0 mm 0 W/m2
07:10 9.8 °C 9.2 °C 1021.2 hPa Calm   8.0 km/h 96 % 0.0 mm 0 W/m2
07:15 9.9 °C 9.3 °C 1021.2 hPa SSW 3.2 km/h 8.0 km/h 96 % 0.0 mm 0 W/m2
07:20 10.1 °C 9.4 °C 1021.2 hPa SSW 1.6 km/h 6.4 km/h 96 % 0.0 mm 0 W/m2
07:25 10.1 °C 9.3 °C 1021.2 hPa Calm   6.4 km/h 95 % 0.0 mm 0 W/m2
07:30 10.1 °C 9.3 °C 1021.6 hPa SSW 4.8 km/h 6.4 km/h 95 % 0.0 mm 0 W/m2
07:35 10.2 °C 9.4 °C 1021.6 hPa West 3.2 km/h 6.4 km/h 95 % 0.0 mm 0 W/m2
07:40 10.3 °C 9.5 °C 1021.6 hPa South 8.0 km/h 12.9 km/h 95 % 0.0 mm 0 W/m2
07:45 10.4 °C 9.6 °C 1021.6 hPa WSW 6.4 km/h 12.9 km/h 95 % 0.0 mm 0 W/m2
07:50 10.4 °C 9.7 °C 1021.6 hPa WSW 1.6 km/h 11.3 km/h 95 % 0.0 mm 0 W/m2
07:55 10.5 °C 9.7 °C 1021.6 hPa WSW 11.3 km/h 11.3 km/h 95 % 0.0 mm 0 W/m2
08:00 10.6 °C 9.7 °C 1021.9 hPa SW 6.4 km/h 11.3 km/h 94 % 0.0 mm 0 W/m2
08:05 10.7 °C 9.8 °C 1021.6 hPa SW 6.4 km/h 11.3 km/h 94 % 0.0 mm 9 W/m2
08:10 10.8 °C 9.9 °C 1021.9 hPa WSW 9.7 km/h 9.7 km/h 94 % 0.0 mm 14 W/m2
08:15 10.8 °C 9.9 °C 1021.9 hPa WSW 4.8 km/h 11.3 km/h 94 % 0.0 mm 19 W/m2
08:20 10.9 °C 9.9 °C 1021.9 hPa SSW 1.6 km/h 11.3 km/h 93 % 0.0 mm 23 W/m2
08:25 10.9 °C 9.9 °C 1021.9 hPa Calm   6.4 km/h 93 % 0.0 mm 30 W/m2
08:30 11.1 °C 10.0 °C 1021.9 hPa SW 3.2 km/h 8.0 km/h 93 % 0.0 mm 39 W/m2
08:35 11.2 °C 10.1 °C 1021.9 hPa SSW 3.2 km/h 8.0 km/h 93 % 0.0 mm 44 W/m2
08:40 11.2 °C 10.1 °C 1021.9 hPa SSW 4.8 km/h 9.7 km/h 93 % 0.0 mm 51 W/m2
08:45 11.3 °C 10.1 °C 1022.2 hPa SW 3.2 km/h 9.7 km/h 92 % 0.0 mm 53 W/m2
08:50 11.4 °C 10.1 °C 1022.2 hPa SSW 1.6 km/h 9.7 km/h 92 % 0.0 mm 69 W/m2
08:55 11.5 °C 10.2 °C 1022.2 hPa Calm   9.7 km/h 92 % 0.0 mm 84 W/m2
09:00 11.7 °C 10.5 °C 1022.2 hPa Calm   8.0 km/h 92 % 0.0 mm 149 W/m2
09:05 11.9 °C 10.5 °C 1022.2 hPa SW 3.2 km/h 11.3 km/h 91 % 0.0 mm 127 W/m2
09:10 11.9 °C 10.5 °C 1022.6 hPa Calm   11.3 km/h 91 % 0.0 mm 114 W/m2
09:15 12.0 °C 10.4 °C 1022.6 hPa SSW 3.2 km/h 9.7 km/h 90 % 0.0 mm 114 W/m2
09:20 12.0 °C 10.4 °C 1022.6 hPa SW 4.8 km/h 9.7 km/h 90 % 0.0 mm 90 W/m2
09:25 12.0 °C 10.4 °C 1022.6 hPa SSW 4.8 km/h 9.7 km/h 90 % 0.0 mm 88 W/m2
09:30 12.0 °C 10.4 °C 1022.6 hPa SW 4.8 km/h 8.0 km/h 90 % 0.0 mm 79 W/m2
09:35 12.1 °C 10.5 °C 1022.9 hPa Calm   8.0 km/h 90 % 0.0 mm 88 W/m2
09:40 12.2 °C 10.6 °C 1022.9 hPa Calm   11.3 km/h 90 % 0.0 mm 63 W/m2
09:45 12.2 °C 10.5 °C 1022.9 hPa SSW 3.2 km/h 11.3 km/h 89 % 0.0 mm 65 W/m2
09:50 12.2 °C 10.5 °C 1022.9 hPa SSW 3.2 km/h 6.4 km/h 89 % 0.0 mm 70 W/m2
10:00 12.3 °C 10.5 °C 1023.2 hPa South 6.4 km/h 8.0 km/h 89 % 0.0 mm 90 W/m2
10:05 12.4 °C 10.6 °C 1023.2 hPa SSW 8.0 km/h 8.0 km/h 89 % 0.0 mm 167 W/m2
10:10 12.5 °C 10.6 °C 1023.2 hPa SW 4.8 km/h 9.7 km/h 88 % 0.0 mm 179 W/m2
10:15 12.7 °C 10.7 °C 1023.2 hPa SSW 3.2 km/h 12.9 km/h 88 % 0.0 mm 153 W/m2
10:20 12.8 °C 10.8 °C 1023.2 hPa SSW 6.4 km/h 16.1 km/h 88 % 0.0 mm 237 W/m2
10:25 12.9 °C 10.8 °C 1023.2 hPa SW 4.8 km/h 16.1 km/h 87 % 0.0 mm 244 W/m2
10:30 13.0 °C 10.9 °C 1023.2 hPa SSW 6.4 km/h 17.7 km/h 87 % 0.0 mm 225 W/m2
10:35 13.1 °C 10.9 °C 1023.2 hPa SW 9.7 km/h 17.7 km/h 87 % 0.0 mm 213 W/m2
10:40 13.1 °C 10.8 °C 1023.6 hPa SW 8.0 km/h 14.5 km/h 86 % 0.0 mm 204 W/m2
10:45 13.1 °C 10.9 °C 1023.6 hPa SSW 3.2 km/h 16.1 km/h 87 % 0.0 mm 179 W/m2
10:50 13.0 °C 10.9 °C 1023.6 hPa SSW 9.7 km/h 17.7 km/h 87 % 0.0 mm 330 W/m2
10:55 13.4 °C 11.3 °C 1023.6 hPa SW 8.0 km/h 17.7 km/h 87 % 0.0 mm 269 W/m2
11:00 13.3 °C 11.0 °C 1023.6 hPa SSW 9.7 km/h 25.7 km/h 86 % 0.0 mm 193 W/m2
11:05 13.7 °C 11.4 °C 1023.6 hPa SSW 12.9 km/h 25.7 km/h 86 % 0.0 mm 550 W/m2
11:10 13.9 °C 11.4 °C 1023.6 hPa South 16.1 km/h 17.7 km/h 85 % 0.0 mm 615 W/m2
11:15 13.8 °C 11.1 °C 1023.9 hPa SW 6.4 km/h 20.9 km/h 84 % 0.0 mm 526 W/m2
11:20 13.8 °C 11.2 °C 1023.9 hPa South 3.2 km/h 20.9 km/h 84 % 0.0 mm 519 W/m2
11:25 13.9 °C 11.1 °C 1023.9 hPa SW 9.7 km/h 24.1 km/h 83 % 0.0 mm 534 W/m2
11:30 14.0 °C 11.3 °C 1023.9 hPa SW 6.4 km/h 24.1 km/h 84 % 0.0 mm 541 W/m2
11:35 14.2 °C 11.6 °C 1023.9 hPa South 19.3 km/h 24.1 km/h 84 % 0.0 mm 554 W/m2
11:40 14.6 °C 12.1 °C 1023.9 hPa WSW 11.3 km/h 24.1 km/h 85 % 0.0 mm 563 W/m2
11:45 14.4 °C 11.4 °C 1024.3 hPa South 16.1 km/h 20.9 km/h 82 % 0.0 mm 573 W/m2
11:50 14.7 °C 11.6 °C 1024.3 hPa SW 8.0 km/h 20.9 km/h 82 % 0.0 mm 585 W/m2
11:55 14.7 °C 11.6 °C 1024.3 hPa SW 8.0 km/h 20.9 km/h 82 % 0.0 mm 601 W/m2
12:00 14.6 °C 11.4 °C 1024.3 hPa SW 6.4 km/h 22.5 km/h 81 % 0.0 mm 570 W/m2
12:05 14.1 °C 11.1 °C 1024.3 hPa SW 14.5 km/h 22.5 km/h 82 % 0.0 mm 216 W/m2
12:10 13.7 °C 11.1 °C 1024.3 hPa WSW 4.8 km/h 22.5 km/h 84 % 0.0 mm 229 W/m2
12:15 13.8 °C 11.5 °C 1024.6 hPa SSW 12.9 km/h 20.9 km/h 86 % 0.0 mm 642 W/m2
12:20 14.1 °C 11.4 °C 1024.3 hPa WSW 6.4 km/h 20.9 km/h 84 % 0.0 mm 636 W/m2
12:25 14.4 °C 11.7 °C 1024.3 hPa West 1.6 km/h 20.9 km/h 84 % 0.0 mm 647 W/m2
12:30 14.7 °C 11.8 °C 1024.6 hPa WSW 14.5 km/h 16.1 km/h 83 % 0.0 mm 654 W/m2
12:35 14.9 °C 12.1 °C 1024.3 hPa WSW 8.0 km/h 16.1 km/h 83 % 0.0 mm 663 W/m2
12:40 14.6 °C 11.8 °C 1024.3 hPa SW 8.0 km/h 24.1 km/h 83 % 0.0 mm 670 W/m2
12:45 14.8 °C 12.0 °C 1024.3 hPa WNW 16.1 km/h 24.1 km/h 83 % 0.0 mm 680 W/m2
12:50 14.5 °C 11.5 °C 1024.6 hPa WSW 11.3 km/h 20.9 km/h 82 % 0.0 mm 684 W/m2
12:55 14.8 °C 12.0 °C 1024.6 hPa SW 3.2 km/h 20.9 km/h 83 % 0.0 mm 693 W/m2
13:00 14.8 °C 11.6 °C 1024.6 hPa WSW 16.1 km/h 20.9 km/h 81 % 0.0 mm 698 W/m2
13:05 14.9 °C 11.7 °C 1024.6 hPa WSW 9.7 km/h 20.9 km/h 81 % 0.0 mm 710 W/m2
13:10 14.8 °C 11.7 °C 1024.6 hPa WSW 4.8 km/h 19.3 km/h 82 % 0.0 mm 733 W/m2
13:15 14.7 °C 11.6 °C 1024.6 hPa WSW 11.3 km/h 25.7 km/h 82 % 0.0 mm 707 W/m2
13:20 15.1 °C 11.6 °C 1024.6 hPa WSW 12.9 km/h 25.7 km/h 80 % 0.0 mm 700 W/m2
13:25 14.9 °C 11.5 °C 1024.6 hPa SW 4.8 km/h 19.3 km/h 80 % 0.0 mm 729 W/m2
13:30 15.2 °C 11.6 °C 1024.6 hPa WSW 4.8 km/h 17.7 km/h 79 % 0.0 mm 728 W/m2
13:35 15.1 °C 11.4 °C 1024.6 hPa SW 6.4 km/h 16.1 km/h 79 % 0.0 mm 726 W/m2
13:40 15.1 °C 11.5 °C 1024.6 hPa SW 9.7 km/h 19.3 km/h 79 % 0.0 mm 729 W/m2
13:45 14.9 °C 11.5 °C 1024.6 hPa SSW 11.3 km/h 25.7 km/h 80 % 0.0 mm 731 W/m2
13:50 14.8 °C 11.4 °C 1024.6 hPa WSW 12.9 km/h 25.7 km/h 80 % 0.0 mm 731 W/m2
13:55 15.0 °C 11.8 °C 1024.6 hPa SSE 11.3 km/h 25.7 km/h 81 % 0.0 mm 733 W/m2
14:00 15.1 °C 11.5 °C 1024.6 hPa WSW 11.3 km/h 25.7 km/h 79 % 0.0 mm 738 W/m2
14:05 15.2 °C 11.5 °C 1024.6 hPa WSW 6.4 km/h 24.1 km/h 79 % 0.0 mm 738 W/m2
14:10 15.4 °C 11.8 °C 1024.6 hPa WSW 11.3 km/h 24.1 km/h 79 % 0.0 mm 742 W/m2
14:15 15.6 °C 11.5 °C 1024.6 hPa SW 9.7 km/h 22.5 km/h 77 % 0.0 mm 742 W/m2
14:20 15.8 °C 11.6 °C 1024.6 hPa SW 9.7 km/h 22.5 km/h 76 % 0.0 mm 737 W/m2
14:25 16.1 °C 12.0 °C 1024.6 hPa WSW 17.7 km/h 22.5 km/h 77 % 0.0 mm 737 W/m2
14:30 15.6 °C 11.3 °C 1024.6 hPa SW 8.0 km/h 22.5 km/h 76 % 0.0 mm 737 W/m2
14:35 16.0 °C 11.8 °C 1024.6 hPa SSW 11.3 km/h 24.1 km/h 76 % 0.0 mm 733 W/m2
14:40 15.8 °C 11.6 °C 1024.6 hPa SSW 12.9 km/h 24.1 km/h 76 % 0.0 mm 733 W/m2
14:45 15.9 °C 11.3 °C 1024.6 hPa SSW 11.3 km/h 22.5 km/h 74 % 0.0 mm 717 W/m2
14:50 15.5 °C 11.1 °C 1024.6 hPa SSW 6.4 km/h 22.5 km/h 75 % 0.0 mm 728 W/m2
14:55 15.8 °C 11.6 °C 1024.6 hPa WSW 12.9 km/h 20.9 km/h 76 % 0.0 mm 724 W/m2
15:00 15.8 °C 11.2 °C 1024.6 hPa WSW 14.5 km/h 20.9 km/h 74 % 0.0 mm 719 W/m2
15:05 15.3 °C 10.7 °C 1024.6 hPa West 9.7 km/h 22.5 km/h 74 % 0.0 mm 715 W/m2
15:10 15.5 °C 10.9 °C 1024.9 hPa SW 11.3 km/h 25.7 km/h 74 % 0.0 mm 710 W/m2
15:15 15.8 °C 11.2 °C 1024.9 hPa West 22.5 km/h 29.0 km/h 74 % 0.0 mm 708 W/m2
15:20 15.6 °C 11.2 °C 1024.9 hPa West 9.7 km/h 29.0 km/h 75 % 0.0 mm 703 W/m2
15:25 15.4 °C 11.4 °C 1024.9 hPa SSW 4.8 km/h 27.4 km/h 77 % 0.0 mm 696 W/m2
15:30 15.0 °C 11.0 °C 1024.9 hPa SW 8.0 km/h 22.5 km/h 77 % 0.0 mm 689 W/m2
15:35 15.2 °C 11.4 °C 1024.9 hPa SSE 6.4 km/h 22.5 km/h 78 % 0.0 mm 680 W/m2
15:40 15.3 °C 11.1 °C 1024.9 hPa WSW 14.5 km/h 19.3 km/h 76 % 0.0 mm 670 W/m2
15:45 15.1 °C 10.9 °C 1024.9 hPa SW 9.7 km/h 19.3 km/h 76 % 0.0 mm 663 W/m2
15:50 14.9 °C 10.9 °C 1024.9 hPa WSW 8.0 km/h 19.3 km/h 77 % 0.0 mm 652 W/m2
15:55 15.5 °C 11.7 °C 1024.9 hPa SW 8.0 km/h 19.3 km/h 78 % 0.0 mm 649 W/m2
16:00 15.7 °C 11.3 °C 1024.9 hPa NW 11.3 km/h 19.3 km/h 75 % 0.0 mm 642 W/m2
16:05 15.9 °C 11.3 °C 1024.9 hPa West 4.8 km/h 19.3 km/h 74 % 0.0 mm 636 W/m2
16:10 15.8 °C 11.0 °C 1024.9 hPa SSW 8.0 km/h 19.3 km/h 73 % 0.0 mm 629 W/m2
16:15 15.5 °C 10.5 °C 1024.9 hPa SW 14.5 km/h 17.7 km/h 72 % 0.0 mm 612 W/m2
16:20 15.2 °C 10.6 °C 1024.9 hPa SW 9.7 km/h 20.9 km/h 74 % 0.0 mm 605 W/m2
16:25 15.3 °C 11.3 °C 1024.9 hPa SSW 11.3 km/h 20.9 km/h 77 % 0.0 mm 601 W/m2
16:30 15.4 °C 11.0 °C 1024.9 hPa West 6.4 km/h 17.7 km/h 75 % 0.0 mm 573 W/m2
16:35 15.3 °C 10.7 °C 1024.9 hPa SW 11.3 km/h 19.3 km/h 74 % 0.0 mm 494 W/m2
16:40 15.2 °C 10.4 °C 1024.9 hPa SSW 8.0 km/h 20.9 km/h 73 % 0.0 mm 394 W/m2
16:45 15.0 °C 10.6 °C 1024.9 hPa South 4.8 km/h 20.9 km/h 75 % 0.0 mm 608 W/m2
16:50 15.1 °C 10.5 °C 1024.9 hPa SSW 6.4 km/h 19.3 km/h 74 % 0.0 mm 561 W/m2
16:55 15.2 °C 10.8 °C 1024.9 hPa SW 11.3 km/h 19.3 km/h 75 % 0.0 mm 461 W/m2
17:00 15.0 °C 10.4 °C 1024.9 hPa SW 9.7 km/h 19.3 km/h 74 % 0.0 mm 513 W/m2
17:05 14.7 °C 10.5 °C 1024.9 hPa WSW 14.5 km/h 24.1 km/h 76 % 0.0 mm 543 W/m2
17:10 14.8 °C 10.6 °C 1024.9 hPa South 12.9 km/h 24.1 km/h 76 % 0.0 mm 376 W/m2
17:15 14.3 °C 10.2 °C 1024.9 hPa WSW 9.7 km/h 19.3 km/h 76 % 0.0 mm 283 W/m2
17:20 14.3 °C 10.3 °C 1024.9 hPa WSW 3.2 km/h 17.7 km/h 77 % 0.0 mm 411 W/m2
17:25 14.7 °C 10.7 °C 1024.9 hPa WSW 11.3 km/h 19.3 km/h 77 % 0.0 mm 510 W/m2
17:30 14.7 °C 10.3 °C 1024.9 hPa SW 8.0 km/h 22.5 km/h 75 % 0.0 mm 290 W/m2
17:35 14.6 °C 10.4 °C 1024.9 hPa South 6.4 km/h 22.5 km/h 76 % 0.0 mm 271 W/m2
17:40 14.7 °C 10.1 °C 1024.9 hPa SW 20.9 km/h 20.9 km/h 74 % 0.0 mm 262 W/m2
17:45 14.6 °C 10.2 °C 1024.9 hPa SW 11.3 km/h 22.5 km/h 75 % 0.0 mm 257 W/m2
17:50 14.4 °C 10.2 °C 1024.9 hPa SW 11.3 km/h 22.5 km/h 76 % 0.0 mm 246 W/m2
17:55 14.3 °C 10.2 °C 1024.9 hPa WSW 16.1 km/h 22.5 km/h 76 % 0.0 mm 209 W/m2
18:00 14.4 °C 10.4 °C 1024.9 hPa SW 8.0 km/h 22.5 km/h 77 % 0.0 mm 185 W/m2
18:05 14.3 °C 10.2 °C 1024.9 hPa West 11.3 km/h 20.9 km/h 76 % 0.0 mm 281 W/m2
18:10 14.3 °C 10.4 °C 1024.9 hPa SSE 4.8 km/h 20.9 km/h 77 % 0.0 mm 199 W/m2
18:15 14.3 °C 10.4 °C 1024.9 hPa WSW 12.9 km/h 20.9 km/h 77 % 0.0 mm 181 W/m2
18:20 14.2 °C 10.2 °C 1024.9 hPa WSW 9.7 km/h 17.7 km/h 77 % 0.0 mm 227 W/m2
18:25 14.3 °C 10.5 °C 1024.9 hPa SSW 4.8 km/h 16.1 km/h 78 % 0.0 mm 211 W/m2
18:30 14.4 °C 10.5 °C 1024.9 hPa WNW 8.0 km/h 14.5 km/h 77 % 0.0 mm 113 W/m2
18:35 14.3 °C 10.2 °C 1024.9 hPa WNW 14.5 km/h 17.7 km/h 76 % 0.0 mm 120 W/m2
18:40 14.2 °C 10.0 °C 1024.9 hPa SW 11.3 km/h 19.3 km/h 76 % 0.0 mm 207 W/m2
18:45 14.2 °C 10.0 °C 1024.9 hPa SSW 8.0 km/h 19.3 km/h 76 % 0.0 mm 204 W/m2
18:50 14.2 °C 9.8 °C 1024.9 hPa SW 11.3 km/h 14.5 km/h 75 % 0.0 mm 56 W/m2
18:55 14.2 °C 10.0 °C 1025.3 hPa SW 6.4 km/h 16.1 km/h 76 % 0.0 mm 49 W/m2
19:00 14.1 °C 9.9 °C 1025.3 hPa SW 8.0 km/h 17.7 km/h 76 % 0.0 mm 47 W/m2
19:05 14.0 °C 9.8 °C 1025.3 hPa South 8.0 km/h 17.7 km/h 76 % 0.0 mm 86 W/m2
19:10 13.9 °C 9.7 °C 1025.3 hPa SW 4.8 km/h 17.7 km/h 76 % 0.0 mm 44 W/m2
19:15 13.8 °C 9.7 °C 1025.3 hPa SW 6.4 km/h 19.3 km/h 76 % 0.0 mm 60 W/m2
19:20 13.8 °C 9.8 °C 1025.3 hPa SW 3.2 km/h 19.3 km/h 77 % 0.0 mm 40 W/m2
19:25 13.7 °C 9.7 °C 1025.3 hPa SSW 4.8 km/h 16.1 km/h 77 % 0.0 mm 49 W/m2
19:30 13.7 °C 9.7 °C 1025.3 hPa SSW 6.4 km/h 14.5 km/h 77 % 0.0 mm 35 W/m2
19:35 13.6 °C 9.6 °C 1025.3 hPa WSW 11.3 km/h 14.5 km/h 77 % 0.0 mm 32 W/m2
19:40 13.5 °C 9.5 °C 1025.3 hPa SSW 4.8 km/h 12.9 km/h 77 % 0.0 mm 28 W/m2
19:45 13.5 °C 9.4 °C 1025.3 hPa SSW 6.4 km/h 14.5 km/h 76 % 0.0 mm 26 W/m2
19:50 13.4 °C 9.3 °C 1025.3 hPa SSW 3.2 km/h 14.5 km/h 76 % 0.0 mm 25 W/m2
19:55 13.4 °C 9.4 °C 1025.3 hPa SSW 8.0 km/h 12.9 km/h 77 % 0.0 mm 19 W/m2
20:00 13.2 °C 9.5 °C 1025.3 hPa SW 4.8 km/h 12.9 km/h 78 % 0.0 mm 18 W/m2
20:05 13.2 °C 9.4 °C 1025.3 hPa SSW 9.7 km/h 14.5 km/h 78 % 0.0 mm 14 W/m2
20:10 13.1 °C 9.5 °C 1025.3 hPa South 6.4 km/h 14.5 km/h 79 % 0.0 mm 12 W/m2
20:15 12.9 °C 9.6 °C 1025.3 hPa SSW 4.8 km/h 14.5 km/h 80 % 0.0 mm 11 W/m2
20:20 12.8 °C 9.7 °C 1025.3 hPa SSW 4.8 km/h 12.9 km/h 81 % 0.0 mm 7 W/m2
20:25 12.7 °C 9.7 °C 1025.3 hPa South 4.8 km/h 12.9 km/h 82 % 0.0 mm 5 W/m2
20:30 12.6 °C 9.7 °C 1025.3 hPa SSE 4.8 km/h 11.3 km/h 83 % 0.0 mm 0 W/m2
20:35 12.4 °C 9.6 °C 1025.3 hPa South 3.2 km/h 9.7 km/h 83 % 0.0 mm 0 W/m2
20:40 12.3 °C 9.5 °C 1025.3 hPa SSE 6.4 km/h 8.0 km/h 83 % 0.0 mm 0 W/m2
20:45 12.2 °C 9.4 °C 1025.3 hPa SSE 4.8 km/h 8.0 km/h 83 % 0.0 mm 0 W/m2
20:50 12.2 °C 9.5 °C 1025.3 hPa SSW 9.7 km/h 9.7 km/h 84 % 0.0 mm 0 W/m2
20:55 12.1 °C 9.5 °C 1025.6 hPa South 6.4 km/h 11.3 km/h 84 % 0.0 mm 0 W/m2
21:00 12.1 °C 9.7 °C 1025.6 hPa SSW 8.0 km/h 11.3 km/h 85 % 0.0 mm 0 W/m2
21:05 12.0 °C 9.7 °C 1025.6 hPa South 8.0 km/h 14.5 km/h 86 % 0.0 mm 0 W/m2
21:10 11.9 °C 9.6 °C 1025.6 hPa South 6.4 km/h 14.5 km/h 86 % 0.0 mm 0 W/m2
21:15 11.8 °C 9.6 °C 1025.6 hPa South 12.9 km/h 14.5 km/h 86 % 0.0 mm 0 W/m2
21:20 11.7 °C 9.5 °C 1025.6 hPa South 9.7 km/h 14.5 km/h 86 % 0.0 mm 0 W/m2
21:25 11.7 °C 9.4 °C 1025.6 hPa SSW 6.4 km/h 12.9 km/h 86 % 0.0 mm 0 W/m2
21:30 11.7 °C 9.4 °C 1025.6 hPa South 4.8 km/h 14.5 km/h 86 % 0.0 mm 0 W/m2
21:35 11.6 °C 9.3 °C 1026.0 hPa SSW 8.0 km/h 14.5 km/h 86 % 0.0 mm 0 W/m2
21:40 11.6 °C 9.3 °C 1025.6 hPa SSW 4.8 km/h 12.9 km/h 86 % 0.0 mm 0 W/m2
21:45 11.6 °C 9.3 °C 1025.6 hPa South 8.0 km/h 12.9 km/h 86 % 0.0 mm 0 W/m2
21:50 11.6 °C 9.3 °C 1025.6 hPa South 4.8 km/h 14.5 km/h 86 % 0.0 mm 0 W/m2
21:55 11.5 °C 9.2 °C 1025.6 hPa SSE 6.4 km/h 14.5 km/h 86 % 0.0 mm 0 W/m2
22:00 11.4 °C 9.2 °C 1025.6 hPa SSE 3.2 km/h 14.5 km/h 86 % 0.0 mm 0 W/m2
22:05 11.4 °C 9.2 °C 1025.6 hPa SSW 8.0 km/h 14.5 km/h 86 % 0.0 mm 0 W/m2
22:10 11.4 °C 9.2 °C 1026.0 hPa South 4.8 km/h 12.9 km/h 86 % 0.0 mm 0 W/m2
22:15 11.5 °C 9.1 °C 1025.6 hPa South 11.3 km/h 14.5 km/h 85 % 0.0 mm 0 W/m2
22:20 11.4 °C 9.0 °C 1025.6 hPa South 6.4 km/h 14.5 km/h 85 % 0.0 mm 0 W/m2
22:25 11.4 °C 9.0 °C 1026.0 hPa South 6.4 km/h 12.9 km/h 85 % 0.0 mm 0 W/m2
22:30 11.5 °C 9.1 °C 1026.0 hPa South 4.8 km/h 12.9 km/h 85 % 0.0 mm 0 W/m2
22:35 11.4 °C 8.8 °C 1026.0 hPa South 9.7 km/h 12.9 km/h 84 % 0.0 mm 0 W/m2
22:40 11.4 °C 9.0 °C 1026.0 hPa SSW 9.7 km/h 12.9 km/h 85 % 0.0 mm 0 W/m2
22:45 11.3 °C 8.8 °C 1026.0 hPa South 6.4 km/h 12.9 km/h 85 % 0.0 mm 0 W/m2
22:50 11.2 °C 8.9 °C 1026.0 hPa SSE 4.8 km/h 11.3 km/h 86 % 0.0 mm 0 W/m2
22:55 11.1 °C 9.0 °C 1026.0 hPa South 11.3 km/h 12.9 km/h 87 % 0.0 mm 0 W/m2
23:00 11.1 °C 9.0 °C 1026.0 hPa SSW 6.4 km/h 12.9 km/h 87 % 0.0 mm 0 W/m2
23:05 11.1 °C 9.0 °C 1026.0 hPa South 3.2 km/h 12.9 km/h 87 % 0.0 mm 0 W/m2
23:10 11.0 °C 8.9 °C 1026.0 hPa South 6.4 km/h 12.9 km/h 87 % 0.0 mm 0 W/m2
23:15 11.1 °C 9.0 °C 1026.3 hPa South 8.0 km/h 12.9 km/h 87 % 0.0 mm 0 W/m2
23:20 11.1 °C 9.0 °C 1026.0 hPa SSE 8.0 km/h 12.9 km/h 87 % 0.0 mm 0 W/m2
23:25 11.1 °C 9.0 °C 1026.0 hPa South 4.8 km/h 12.9 km/h 87 % 0.0 mm 0 W/m2
23:30 11.1 °C 9.0 °C 1026.0 hPa South 6.4 km/h 12.9 km/h 87 % 0.0 mm 0 W/m2
23:35 11.1 °C 9.0 °C 1026.0 hPa South 8.0 km/h 12.9 km/h 87 % 0.0 mm 0 W/m2
23:40 11.2 °C 9.1 °C 1026.0 hPa South 8.0 km/h 12.9 km/h 87 % 0.0 mm 0 W/m2
23:45 11.2 °C 9.1 °C 1026.0 hPa SSW 9.7 km/h 14.5 km/h 87 % 0.0 mm 0 W/m2
23:50 11.2 °C 9.1 °C 1026.0 hPa SSE 8.0 km/h 16.1 km/h 87 % 0.0 mm 0 W/m2
23:55 11.2 °C 9.1 °C 1026.0 hPa South 8.0 km/h 16.1 km/h 87 % 0.0 mm 0 W/m2
Avec l'autorisation de Weather Underground - 1.75 mb